Time;durP1;ratioP1;P1;durP2;ratioP2;P2;SDS_P1;SDS_P2;PMS_P1;PMS_P2;Temp;Humidity;BMP_temperature;BMP_pressure;BME280_temperature;BME280_humidity;BME280_pressure;Samples;Min_cycle;Max_cycle;Signal;HPM_P1;HPM_P2
2023/10/21 00:01:27;;;;;;;1.40;0.70;;;;;;;15.36;91.37;95593.72;4180169;28;20643;-81
2023/10/21 00:03:30;;;;;;;1.20;0.60;;;;;;;15.42;89.64;95610.53;4178723;28;20666;-80
2023/10/21 00:05:34;;;;;;;1.40;0.60;;;;;;;15.45;89.68;95599.66;4172064;28;20742;-80
2023/10/21 00:07:37;;;;;;;2.60;0.50;;;;;;;15.50;91.00;95603.31;4175431;28;20739;-80
2023/10/21 00:09:40;;;;;;;1.00;0.50;;;;;;;15.55;90.48;95612.22;4188802;28;21314;-80
2023/10/21 00:11:43;;;;;;;1.87;0.50;;;;;;;15.61;88.30;95618.50;4194212;28;20652;-80
2023/10/21 00:13:45;;;;;;;2.73;0.70;;;;;;;15.64;88.27;95633.91;4196317;28;20620;-80
2023/10/21 00:15:48;;;;;;;1.57;0.80;;;;;;;15.66;89.68;95627.41;4205149;28;20659;-80
2023/10/21 00:17:53;;;;;;;2.17;1.10;;;;;;;15.70;89.45;95628.66;4196186;28;20974;-80
2023/10/21 00:19:56;;;;;;;1.10;0.40;;;;;;;15.72;88.31;95631.88;4164943;28;20636;-81
2023/10/21 00:21:58;;;;;;;1.20;0.60;;;;;;;15.75;88.88;95642.00;4195313;28;20621;-80
2023/10/21 00:24:02;;;;;;;1.83;0.60;;;;;;;15.80;87.42;95647.50;4188920;28;20980;-80
2023/10/21 00:26:05;;;;;;;1.30;0.53;;;;;;;15.84;86.90;95656.63;4174810;28;20669;-80
2023/10/21 00:28:08;;;;;;;1.30;0.70;;;;;;;15.86;86.78;95649.38;4190593;28;20631;-80
2023/10/21 00:30:13;;;;;;;1.70;0.50;;;;;;;15.89;88.96;95650.75;4173271;28;20656;-80
2023/10/21 00:32:16;;;;;;;3.63;0.70;;;;;;;15.93;88.83;95652.81;4174081;28;20643;-81
2023/10/21 00:34:20;;;;;;;1.67;0.80;;;;;;;15.97;86.47;95661.13;4167794;28;20675;-80
2023/10/21 00:36:25;;;;;;;1.10;0.50;;;;;;;16.04;86.99;95671.47;4193104;28;20959;-80
2023/10/21 00:38:28;;;;;;;1.80;0.60;;;;;;;16.08;88.26;95669.25;4176613;28;20628;-80
2023/10/21 00:40:31;;;;;;;1.13;0.50;;;;;;;16.09;87.41;95660.34;4177620;28;20625;-80
2023/10/21 00:42:34;;;;;;;1.47;0.60;;;;;;;16.11;88.63;95668.84;4195504;28;20630;-80
2023/10/21 00:44:37;;;;;;;1.40;0.70;;;;;;;16.15;87.83;95673.53;4193822;28;20666;-80
2023/10/21 00:46:41;;;;;;;1.63;0.53;;;;;;;16.14;87.23;95674.53;4200909;28;20686;-80
2023/10/21 00:48:44;;;;;;;1.20;0.60;;;;;;;16.15;86.95;95681.41;4156081;28;20772;-80
2023/10/21 00:50:49;;;;;;;2.70;0.60;;;;;;;16.18;86.46;95674.97;4160922;28;20733;-79
2023/10/21 00:52:52;;;;;;;1.40;0.60;;;;;;;16.18;87.73;95677.59;4206471;28;20625;-80
2023/10/21 00:54:57;;;;;;;1.50;0.80;;;;;;;16.22;86.32;95676.19;4188634;28;20725;-80
2023/10/21 00:57:00;;;;;;;1.40;0.70;;;;;;;16.19;87.33;95676.56;4160942;28;21068;-80
2023/10/21 00:59:03;;;;;;;1.00;0.40;;;;;;;16.18;86.60;95669.69;4162282;28;20628;-80
2023/10/21 01:01:08;;;;;;;1.17;0.60;;;;;;;16.21;87.64;95674.56;4157499;28;20695;-79
2023/10/21 01:03:11;;;;;;;1.20;0.50;;;;;;;16.23;87.94;95677.84;4196070;28;20631;-80
2023/10/21 01:05:15;;;;;;;1.10;0.50;;;;;;;16.23;88.20;95683.09;4187235;28;20654;-80
2023/10/21 01:07:19;;;;;;;1.70;0.60;;;;;;;16.20;87.76;95688.72;4166359;28;20763;-80
2023/10/21 01:09:22;;;;;;;1.10;0.50;;;;;;;16.17;88.95;95700.44;4169191;28;20663;-80
2023/10/21 01:11:25;;;;;;;1.30;0.60;;;;;;;16.15;88.93;95697.19;4172383;28;21223;-80
2023/10/21 01:13:28;;;;;;;1.20;0.53;;;;;;;16.13;88.36;95699.22;4166988;28;20645;-80
2023/10/21 01:15:30;;;;;;;1.53;0.60;;;;;;;16.13;88.37;95701.03;4173760;28;21249;-80
2023/10/21 01:17:33;;;;;;;1.00;0.40;;;;;;;16.13;87.46;95698.38;4164186;28;20656;-80
2023/10/21 01:19:38;;;;;;;1.40;0.60;;;;;;;16.12;87.06;95699.41;4204722;28;20672;-80
2023/10/21 01:21:41;;;;;;;1.20;0.50;;;;;;;16.13;87.73;95714.16;4172247;28;20615;-80
2023/10/21 01:23:46;;;;;;;1.03;0.50;;;;;;;16.13;87.98;95719.44;4161869;28;20625;-80
2023/10/21 01:25:48;;;;;;;1.20;0.60;;;;;;;16.13;86.60;95728.16;4172328;28;20630;-80
2023/10/21 01:27:53;;;;;;;1.27;0.60;;;;;;;16.13;87.44;95729.94;4177399;28;21051;-80
2023/10/21 01:29:55;;;;;;;1.60;0.50;;;;;;;16.12;88.42;95728.34;4156519;28;20634;-80
2023/10/21 01:31:59;;;;;;;1.10;0.50;;;;;;;16.10;88.25;95725.09;4159977;28;20697;-80
2023/10/21 01:34:02;;;;;;;1.50;0.70;;;;;;;16.09;88.38;95734.00;4207543;28;20683;-80
2023/10/21 01:36:05;;;;;;;1.10;0.50;;;;;;;16.03;88.56;95735.59;4193983;28;20622;-80
2023/10/21 01:38:09;;;;;;;1.20;0.50;;;;;;;16.01;86.61;95742.03;4190755;28;20668;-80
2023/10/21 01:40:14;;;;;;;1.07;0.53;;;;;;;16.01;89.54;95736.78;4178809;28;20649;-79
2023/10/21 01:42:17;;;;;;;1.00;0.40;;;;;;;15.94;88.42;95749.09;4156992;28;21296;-80
2023/10/21 01:44:20;;;;;;;1.20;0.50;;;;;;;15.88;87.25;95754.31;4194418;28;20647;-80
2023/10/21 01:46:26;;;;;;;1.30;0.63;;;;;;;15.87;90.00;95756.13;4157359;28;20641;-80
2023/10/21 01:48:30;;;;;;;1.20;0.60;;;;;;;15.87;87.17;95760.56;4177153;28;20636;-80
2023/10/21 01:50:33;;;;;;;1.47;0.50;;;;;;;15.86;88.56;95770.28;4177462;28;21188;-80
2023/10/21 01:52:37;;;;;;;1.30;0.50;;;;;;;15.83;90.53;95760.16;4162005;28;21202;-79
2023/10/21 01:54:43;;;;;;;1.63;0.70;;;;;;;15.82;88.61;95763.78;4175838;28;20630;-81
2023/10/21 01:56:47;;;;;;;1.40;0.80;;;;;;;15.78;89.21;95767.78;4188044;28;20658;-80
2023/10/21 01:58:51;;;;;;;1.60;0.63;;;;;;;15.77;89.19;95783.75;4175198;28;20632;-80
2023/10/21 02:00:54;;;;;;;1.30;0.60;;;;;;;15.78;89.99;95788.03;4172317;28;21220;-80
2023/10/21 02:02:57;;;;;;;1.27;0.60;;;;;;;15.79;90.28;95792.28;4200394;28;20629;-80
2023/10/21 02:05:00;;;;;;;1.10;0.50;;;;;;;15.76;90.81;95806.63;4175698;28;20667;-80
2023/10/21 02:07:04;;;;;;;1.30;0.43;;;;;;;15.75;89.03;95799.72;4188967;28;20659;-80
2023/10/21 02:09:07;;;;;;;1.17;0.50;;;;;;;15.78;90.62;95819.56;4177348;28;20631;-80
2023/10/21 02:11:10;;;;;;;1.20;0.50;;;;;;;15.80;89.09;95823.63;4195468;28;20972;-80
2023/10/21 02:13:15;;;;;;;1.57;0.80;;;;;;;15.76;89.98;95826.84;4212502;28;20621;-80
2023/10/21 02:15:18;;;;;;;1.70;0.60;;;;;;;15.77;89.52;95826.66;4176308;28;20713;-79
2023/10/21 02:17:21;;;;;;;1.10;0.50;;;;;;;15.77;91.03;95824.03;4196174;28;20676;-80
2023/10/21 02:19:24;;;;;;;1.40;0.50;;;;;;;15.79;89.63;95832.53;4208998;28;20681;-81
2023/10/21 02:21:28;;;;;;;1.77;0.50;;;;;;;15.79;91.51;95831.72;4180609;28;21218;-80
2023/10/21 02:23:31;;;;;;;1.27;0.50;;;;;;;15.78;92.29;95846.66;4172520;28;20682;-80
2023/10/21 02:25:34;;;;;;;1.00;0.40;;;;;;;15.78;89.55;95844.03;4175463;28;20776;-80
2023/10/21 02:27:37;;;;;;;1.50;0.43;;;;;;;15.76;90.42;95838.16;4178941;28;20636;-80
2023/10/21 02:29:41;;;;;;;2.00;0.50;;;;;;;15.81;89.25;95850.72;4174643;28;20666;-80
2023/10/21 02:31:44;;;;;;;1.10;0.50;;;;;;;15.80;91.53;95849.94;4210647;28;20646;-80
2023/10/21 02:33:48;;;;;;;1.10;0.50;;;;;;;15.83;91.16;95851.34;4181006;28;20649;-80
2023/10/21 02:35:52;;;;;;;1.27;0.50;;;;;;;15.84;90.11;95852.97;4181651;28;20628;-80
2023/10/21 02:37:55;;;;;;;1.10;0.50;;;;;;;15.80;91.07;95865.69;4173816;28;20755;-80
2023/10/21 02:39:58;;;;;;;2.20;0.60;;;;;;;15.78;90.94;95867.69;4172849;28;20648;-80
2023/10/21 02:42:02;;;;;;;1.40;0.60;;;;;;;15.76;90.37;95859.19;4171036;28;20646;-80
2023/10/21 02:44:06;;;;;;;1.33;0.63;;;;;;;15.77;90.93;95862.63;4195938;28;20633;-80
2023/10/21 02:46:13;;;;;;;1.20;0.50;;;;;;;15.79;91.20;95858.00;4190461;28;20728;-80
2023/10/21 02:48:17;;;;;;;3.10;0.60;;;;;;;15.78;89.62;95870.31;4179788;28;20733;-80
2023/10/21 02:50:20;;;;;;;1.50;0.50;;;;;;;15.75;88.55;95872.53;4164762;28;20679;-80
2023/10/21 02:52:22;;;;;;;1.30;0.60;;;;;;;15.72;90.70;95868.44;4166445;28;20694;-80
2023/10/21 02:54:26;;;;;;;1.10;0.60;;;;;;;15.72;89.53;95868.44;4174893;28;20632;-80
2023/10/21 02:56:29;;;;;;;1.10;0.63;;;;;;;15.73;89.19;95875.34;4195825;28;20627;-80
2023/10/21 02:58:32;;;;;;;1.23;0.50;;;;;;;15.68;89.38;95883.00;4176445;28;20619;-80
2023/10/21 03:00:36;;;;;;;1.10;0.50;;;;;;;15.66;90.38;95884.16;4205665;28;20648;-80
2023/10/21 03:02:41;;;;;;;1.20;0.50;;;;;;;15.58;91.36;95893.00;4164234;28;20639;-80
2023/10/21 03:04:44;;;;;;;1.20;0.60;;;;;;;15.56;91.55;95895.00;4163000;28;20624;-80
2023/10/21 03:06:47;;;;;;;1.53;0.47;;;;;;;15.52;89.71;95889.50;4176302;28;20743;-80
2023/10/21 03:08:50;;;;;;;1.07;0.60;;;;;;;15.44;91.58;95890.44;4192292;28;20639;-80
2023/10/21 03:10:53;;;;;;;1.00;0.50;;;;;;;15.42;91.05;95899.50;4195712;28;20666;-80
2023/10/21 03:12:56;;;;;;;1.17;0.50;;;;;;;15.36;92.18;95882.69;4181234;28;20625;-80
2023/10/21 03:15:00;;;;;;;5.80;0.80;;;;;;;15.32;93.34;95888.50;4177880;28;20656;-80
2023/10/21 03:17:03;;;;;;;1.20;0.43;;;;;;;15.30;92.02;95890.50;4193059;28;20622;-80
2023/10/21 03:19:08;;;;;;;1.17;0.40;;;;;;;15.24;92.67;95896.50;4172091;28;21487;-80
2023/10/21 03:21:11;;;;;;;1.10;0.43;;;;;;;15.21;93.68;95894.25;4170103;28;20637;-80
2023/10/21 03:23:18;;;;;;;1.30;0.60;;;;;;;15.18;93.39;95902.50;4187005;28;21261;-80
2023/10/21 03:25:21;;;;;;;1.50;0.50;;;;;;;15.14;92.42;95898.59;4171810;28;20620;-80
2023/10/21 03:27:25;;;;;;;1.10;0.50;;;;;;;15.08;93.50;95905.41;4194494;28;20638;-80
2023/10/21 03:29:28;;;;;;;1.00;0.40;;;;;;;15.08;92.90;95905.41;4164504;28;20735;-80
2023/10/21 03:31:30;;;;;;;1.10;0.57;;;;;;;15.09;93.36;95911.44;4197266;28;20641;-80
2023/10/21 03:33:34;;;;;;;1.67;0.50;;;;;;;15.12;93.79;95922.41;4166334;28;20742;-81
2023/10/21 03:35:39;;;;;;;1.07;0.50;;;;;;;15.14;92.45;95932.75;4202302;28;21140;-80
2023/10/21 03:37:42;;;;;;;1.60;0.60;;;;;;;15.13;92.85;95931.91;4187656;28;21200;-80
2023/10/21 03:39:45;;;;;;;1.30;0.50;;;;;;;15.12;93.10;95927.69;4190149;28;20629;-80
2023/10/21 03:41:48;;;;;;;1.10;0.50;;;;;;;15.12;91.91;95929.47;4208566;28;20659;-80
2023/10/21 03:43:52;;;;;;;1.10;0.50;;;;;;;15.13;93.07;95941.59;4162530;28;21085;-80
2023/10/21 03:45:57;;;;;;;2.27;0.50;;;;;;;15.12;92.95;95932.91;4205199;28;21087;-80
2023/10/21 03:48:00;;;;;;;1.00;0.40;;;;;;;15.14;93.08;95936.16;4158138;28;20668;-81
2023/10/21 03:50:03;;;;;;;2.60;0.57;;;;;;;15.13;91.76;95945.03;4177317;28;20694;-82
2023/10/21 03:52:08;;;;;;;1.60;0.40;;;;;;;15.17;92.77;95956.03;4172492;28;21016;-83
2023/10/21 03:54:11;;;;;;;1.50;0.70;;;;;;;15.16;93.23;95955.16;4165239;28;20635;-80
2023/10/21 03:56:14;;;;;;;1.20;0.50;;;;;;;15.17;91.24;95967.34;4167613;28;20672;-80
2023/10/21 03:58:17;;;;;;;1.10;0.53;;;;;;;15.16;92.02;95970.94;4177386;28;20649;-80
2023/10/21 04:00:20;;;;;;;1.10;0.50;;;;;;;15.15;92.14;95973.72;4180240;28;20733;-80
2023/10/21 04:02:23;;;;;;;1.40;0.60;;;;;;;15.19;91.76;95975.03;4172261;28;21231;-81
2023/10/21 04:04:26;;;;;;;1.10;0.43;;;;;;;15.22;91.68;95970.22;4186558;28;20640;-81
2023/10/21 04:06:29;;;;;;;1.20;0.40;;;;;;;15.23;92.18;95971.88;4193789;28;20651;-80
2023/10/21 04:08:34;;;;;;;1.73;0.40;;;;;;;15.24;90.63;95970.03;4175656;28;20623;-80
2023/10/21 04:10:37;;;;;;;1.40;0.70;;;;;;;15.25;91.61;95979.56;4190998;28;21233;-80
2023/10/21 04:12:40;;;;;;;3.13;0.70;;;;;;;15.26;92.29;95973.28;4158779;28;20660;-80
2023/10/21 04:14:44;;;;;;;1.10;0.40;;;;;;;15.23;91.42;95979.75;4175990;28;20632;-80
2023/10/21 04:16:47;;;;;;;1.10;0.40;;;;;;;15.22;91.96;95985.97;4175093;28;20644;-80
2023/10/21 04:18:50;;;;;;;2.80;0.50;;;;;;;15.20;91.26;95990.63;4173101;28;20731;-80
2023/10/21 04:20:55;;;;;;;1.00;0.50;;;;;;;15.20;92.55;95987.19;4201172;28;20653;-80
2023/10/21 04:22:58;;;;;;;1.00;0.40;;;;;;;15.16;92.41;95986.69;4172773;28;20628;-80
2023/10/21 04:25:03;;;;;;;1.37;0.50;;;;;;;15.18;91.75;95994.41;4176962;28;20662;-80
2023/10/21 04:27:06;;;;;;;1.10;0.47;;;;;;;15.14;92.42;95993.94;4174352;28;20659;-80
2023/10/21 04:29:09;;;;;;;1.43;0.60;;;;;;;15.12;92.14;96003.81;4176936;28;20643;-80
2023/10/21 04:31:13;;;;;;;1.27;0.50;;;;;;;15.10;92.23;96011.06;4170393;28;20667;-80
2023/10/21 04:33:16;;;;;;;2.03;0.53;;;;;;;15.10;90.64;96008.44;4190137;28;20628;-80
2023/10/21 04:35:19;;;;;;;1.20;0.83;;;;;;;15.13;91.83;96008.06;4194234;28;20665;-80
2023/10/21 04:37:22;;;;;;;1.00;0.43;;;;;;;15.16;92.51;96020.03;4191221;28;20638;-80
2023/10/21 04:39:25;;;;;;;1.20;0.50;;;;;;;15.13;92.29;96023.81;4192798;28;20630;-80
2023/10/21 04:41:30;;;;;;;1.50;0.70;;;;;;;15.15;92.65;96024.47;4161627;28;20623;-80
2023/10/21 04:43:33;;;;;;;1.20;0.70;;;;;;;15.17;91.85;96019.06;4193702;28;20742;-80
2023/10/21 04:45:36;;;;;;;2.00;0.63;;;;;;;15.17;92.49;96025.13;4192323;28;20661;-80
2023/10/21 04:47:39;;;;;;;1.27;0.60;;;;;;;15.18;90.97;96023.28;4190263;28;20703;-80
2023/10/21 04:49:43;;;;;;;1.60;0.70;;;;;;;15.18;91.84;96025.94;4178173;28;20655;-80
2023/10/21 04:51:46;;;;;;;3.53;0.60;;;;;;;15.15;91.91;96027.09;4178804;28;20638;-80
2023/10/21 04:53:49;;;;;;;1.10;0.40;;;;;;;15.14;90.91;96032.53;4191664;28;20650;-80
2023/10/21 04:55:53;;;;;;;1.77;0.57;;;;;;;15.11;92.00;96041.56;4173438;28;21187;-80
2023/10/21 04:57:57;;;;;;;1.67;0.60;;;;;;;15.12;90.88;96042.38;4194827;28;20628;-81
2023/10/21 05:00:00;;;;;;;1.10;0.50;;;;;;;15.13;92.39;96052.69;4189843;28;20701;-81
2023/10/21 05:02:03;;;;;;;1.50;0.50;;;;;;;15.14;91.18;96053.53;4194172;28;20627;-80
2023/10/21 05:04:07;;;;;;;1.63;0.50;;;;;;;15.12;91.05;96060.75;4174955;28;20989;-80
2023/10/21 05:06:11;;;;;;;1.10;0.57;;;;;;;15.12;91.46;96069.47;4177753;28;21058;-80
2023/10/21 05:08:14;;;;;;;1.10;0.50;;;;;;;15.10;91.24;96076.69;4177484;28;20813;-81
2023/10/21 05:10:18;;;;;;;1.03;0.50;;;;;;;15.10;92.15;96086.41;4193303;28;20645;-80
2023/10/21 05:12:20;;;;;;;1.87;0.47;;;;;;;15.12;90.85;96087.03;4175632;28;20635;-80
2023/10/21 05:14:25;;;;;;;1.10;0.60;;;;;;;15.11;91.49;96080.97;4174527;28;21204;-80
2023/10/21 05:16:28;;;;;;;1.70;0.60;;;;;;;15.12;92.46;96074.72;4194168;28;20635;-81
2023/10/21 05:18:31;;;;;;;1.00;0.50;;;;;;;15.09;91.28;96082.13;4162966;28;20624;-80
2023/10/21 05:20:34;;;;;;;1.60;0.50;;;;;;;15.10;93.18;96086.41;4178148;28;20646;-81
2023/10/21 05:22:37;;;;;;;1.57;0.70;;;;;;;15.08;93.11;96083.16;4172675;28;20627;-80
2023/10/21 05:24:40;;;;;;;1.20;0.63;;;;;;;15.09;92.28;96095.25;4192208;28;20631;-80
2023/10/21 05:26:43;;;;;;;2.23;1.00;;;;;;;15.09;91.68;96106.59;4205372;28;20660;-80
2023/10/21 05:28:48;;;;;;;1.30;0.53;;;;;;;15.08;92.60;96106.78;4174738;28;20631;-80
2023/10/21 05:30:52;;;;;;;1.77;0.73;;;;;;;15.14;92.83;96124.44;4204526;28;21226;-80
2023/10/21 05:32:54;;;;;;;1.57;0.60;;;;;;;15.16;92.88;96127.69;4188972;28;21006;-80
2023/10/21 05:34:58;;;;;;;1.40;0.70;;;;;;;15.19;91.61;96132.63;4196105;28;20682;-80
2023/10/21 05:37:01;;;;;;;1.20;0.60;;;;;;;15.19;92.22;96137.88;4176723;28;21089;-80
2023/10/21 05:39:05;;;;;;;1.47;0.67;;;;;;;15.20;92.62;96139.50;4192296;28;21271;-81
2023/10/21 05:41:08;;;;;;;1.40;0.60;;;;;;;15.21;93.96;96147.19;4202375;28;20729;-80
2023/10/21 05:43:11;;;;;;;1.30;0.50;;;;;;;15.26;93.11;96151.88;4172700;28;20731;-80
2023/10/21 05:45:15;;;;;;;1.50;0.63;;;;;;;15.28;91.60;96144.66;4182422;28;20639;-81
2023/10/21 05:47:19;;;;;;;1.20;0.67;;;;;;;15.29;92.54;96156.78;4163754;28;21039;-80
2023/10/21 05:49:23;;;;;;;1.87;0.80;;;;;;;15.31;91.79;96157.44;4182474;28;20679;-80
2023/10/21 05:51:25;;;;;;;1.80;0.80;;;;;;;15.34;92.55;96167.59;4175346;28;21184;-80
2023/10/21 05:53:28;;;;;;;1.47;0.67;;;;;;;15.39;93.42;96173.09;4179105;28;20647;-81
2023/10/21 05:55:32;;;;;;;1.80;0.80;;;;;;;15.39;92.32;96173.91;4179748;28;21236;-80
2023/10/21 05:57:34;;;;;;;1.30;0.70;;;;;;;15.40;93.41;96174.75;4186266;28;20745;-81
2023/10/21 05:59:37;;;;;;;3.13;1.20;;;;;;;15.40;93.26;96182.63;4167769;28;20627;-81
2023/10/21 06:01:40;;;;;;;1.77;0.80;;;;;;;15.42;93.16;96191.13;4194633;28;20721;-80
2023/10/21 06:03:44;;;;;;;1.80;0.70;;;;;;;15.40;91.86;96199.19;4164031;28;20647;-80
2023/10/21 06:05:48;;;;;;;3.27;0.80;;;;;;;15.41;91.16;96198.22;4182312;28;20627;-81
2023/10/21 06:07:51;;;;;;;1.00;0.50;;;;;;;15.44;91.19;96202.28;4190591;28;20667;-81
2023/10/21 06:09:55;;;;;;;2.27;0.80;;;;;;;15.45;90.89;96211.78;4157307;28;20652;-80
2023/10/21 06:11:59;;;;;;;1.17;0.60;;;;;;;15.47;91.86;96212.41;4192118;28;20736;-80
2023/10/21 06:14:02;;;;;;;1.40;0.70;;;;;;;15.48;91.52;96221.94;4210971;28;21296;-80
2023/10/21 06:16:06;;;;;;;1.20;0.63;;;;;;;15.48;92.13;96216.69;4194846;28;22346;-81
2023/10/21 06:18:09;;;;;;;1.57;0.73;;;;;;;15.50;92.94;96235.72;4176732;28;20690;-81
2023/10/21 06:20:15;;;;;;;1.90;0.63;;;;;;;15.51;93.48;96235.53;4194431;28;20622;-81
2023/10/21 06:22:18;;;;;;;1.30;0.63;;;;;;;15.51;91.33;96246.03;4171786;28;20633;-80
2023/10/21 06:24:22;;;;;;;3.00;0.80;;;;;;;15.51;91.73;96242.59;4179051;28;20631;-80
2023/10/21 06:26:25;;;;;;;3.07;1.00;;;;;;;15.50;91.47;96256.72;4179972;28;20748;-81
2023/10/21 06:28:29;;;;;;;2.10;1.07;;;;;;;15.49;93.27;96252.50;4182028;28;20669;-81
2023/10/21 06:30:32;;;;;;;4.27;1.30;;;;;;;15.50;92.37;96264.63;4156343;28;20664;-81
2023/10/21 06:32:35;;;;;;;4.30;1.60;;;;;;;15.53;91.95;96265.09;4177281;28;20672;-80
2023/10/21 06:34:40;;;;;;;3.67;1.30;;;;;;;15.54;90.61;96265.91;4154636;28;20658;-80
2023/10/21 06:36:45;;;;;;;1.37;0.80;;;;;;;15.56;91.52;96268.16;4198471;28;20619;-81
2023/10/21 06:38:49;;;;;;;4.43;0.83;;;;;;;15.72;91.81;96278.50;4173961;28;21046;-80
2023/10/21 06:40:52;;;;;;;1.63;0.70;;;;;;;16.00;90.67;96282.16;4195396;28;21118;-80
2023/10/21 06:43:15;;;;;;;2.07;0.70;;;;;;;16.33;90.64;96280.81;4197414;28;20657;-80
2023/10/21 06:45:18;;;;;;;1.57;0.80;;;;;;;16.58;89.39;96289.00;4182742;28;20642;-80
2023/10/21 06:47:21;;;;;;;1.20;0.53;;;;;;;16.84;87.98;96285.81;4180743;28;20638;-81
2023/10/21 06:49:25;;;;;;;1.93;0.63;;;;;;;17.02;87.75;96292.31;4175274;28;20682;-81
2023/10/21 06:51:28;;;;;;;2.40;0.60;;;;;;;17.14;87.68;96299.53;4193587;28;21095;-81
2023/10/21 06:53:33;;;;;;;1.20;0.40;;;;;;;17.10;86.94;96292.97;4188394;28;20639;-80
2023/10/21 06:55:41;;;;;;;1.10;0.60;;;;;;;17.08;86.56;96304.72;4192261;28;20644;-80
2023/10/21 06:57:45;;;;;;;3.33;0.50;;;;;;;17.03;86.68;96302.66;4178727;28;20637;-81
2023/10/21 06:59:47;;;;;;;1.50;1.10;;;;;;;16.96;87.11;96308.88;4177912;28;20770;-81
2023/10/21 07:01:50;;;;;;;1.93;0.60;;;;;;;16.86;86.29;96313.59;4182971;28;20632;-80
2023/10/21 07:03:54;;;;;;;1.17;0.53;;;;;;;16.81;86.80;96310.72;4182065;28;20613;-81
2023/10/21 07:05:57;;;;;;;1.63;0.67;;;;;;;16.93;87.30;96319.78;4204273;28;20694;-81
2023/10/21 07:08:01;;;;;;;2.47;0.60;;;;;;;17.23;86.10;96337.13;4171693;28;20660;-81
2023/10/21 07:10:07;;;;;;;2.60;1.57;;;;;;;17.52;86.81;96351.78;4190374;28;20697;-82
2023/10/21 07:12:12;;;;;;;2.23;0.70;;;;;;;17.77;85.43;96349.56;4159824;28;20624;-82
2023/10/21 07:14:15;;;;;;;2.40;0.73;;;;;;;17.85;83.85;96352.88;4189511;28;20639;-81
2023/10/21 07:16:19;;;;;;;1.30;0.50;;;;;;;17.98;84.54;96355.59;4193662;28;20640;-81
2023/10/21 07:18:22;;;;;;;1.43;0.70;;;;;;;18.11;83.66;96363.63;4165501;28;20688;-80
2023/10/21 07:20:25;;;;;;;5.40;0.97;;;;;;;18.25;82.64;96363.56;4175840;28;20631;-80
2023/10/21 07:22:30;;;;;;;1.33;0.60;;;;;;;18.42;81.56;96370.16;4186808;28;20636;-80
2023/10/21 07:24:33;;;;;;;1.63;0.60;;;;;;;18.49;82.30;96376.28;4191696;28;20969;-80
2023/10/21 07:26:38;;;;;;;2.17;0.50;;;;;;;18.58;81.91;96385.66;4192849;28;20626;-80
2023/10/21 07:28:41;;;;;;;1.40;0.50;;;;;;;18.68;80.51;96371.09;4192908;28;21095;-80
2023/10/21 07:30:44;;;;;;;1.20;0.60;;;;;;;18.80;80.67;96379.28;4173227;28;20672;-80
2023/10/21 07:32:48;;;;;;;1.53;0.80;;;;;;;18.84;79.51;96381.34;4172668;28;20655;-80
2023/10/21 07:34:51;;;;;;;1.87;0.60;;;;;;;18.90;81.56;96385.84;4168097;28;20639;-81
2023/10/21 07:36:55;;;;;;;1.20;0.60;;;;;;;19.02;80.42;96394.88;4206259;28;20649;-81
2023/10/21 07:38:58;;;;;;;1.23;0.60;;;;;;;19.04;78.45;96395.47;4188776;28;20686;-81
2023/10/21 07:41:01;;;;;;;2.23;0.90;;;;;;;18.94;78.48;96393.19;4198537;28;20633;-81
2023/10/21 07:43:06;;;;;;;1.40;0.60;;;;;;;18.97;79.30;96394.59;4193124;28;20732;-81
2023/10/21 07:45:11;;;;;;;1.27;0.50;;;;;;;19.05;78.59;96405.84;4188404;28;20681;-81
2023/10/21 07:47:14;;;;;;;1.20;0.50;;;;;;;19.05;78.57;96400.56;4188973;28;20630;-81
2023/10/21 07:49:18;;;;;;;1.33;0.43;;;;;;;19.11;79.89;96398.94;4189729;28;20770;-81
2023/10/21 07:51:22;;;;;;;12.90;11.60;;;;;;;19.21;80.23;96424.00;4186250;28;20640;-82
2023/10/21 07:53:25;;;;;;;3.93;1.10;;;;;;;19.39;79.60;96427.75;4173907;28;20630;-82
2023/10/21 07:55:28;;;;;;;1.20;0.50;;;;;;;19.31;77.29;96431.56;4179157;28;20682;-81
2023/10/21 07:57:32;;;;;;;1.20;0.43;;;;;;;19.28;78.48;96430.13;4179080;28;21002;-81
2023/10/21 07:59:36;;;;;;;1.33;0.67;;;;;;;19.30;77.25;96440.50;4190815;28;20626;-82
2023/10/21 08:01:39;;;;;;;1.30;0.40;;;;;;;19.37;78.22;96442.97;4190409;28;20621;-82
2023/10/21 08:03:44;;;;;;;1.67;0.50;;;;;;;19.40;77.41;96442.56;4187759;28;20667;-82
2023/10/21 08:05:48;;;;;;;2.60;0.60;;;;;;;19.49;77.84;96444.03;4167492;28;20761;-83
2023/10/21 08:07:51;;;;;;;1.20;0.70;;;;;;;19.56;77.74;96438.75;4196560;28;20639;-81
2023/10/21 08:09:54;;;;;;;1.27;0.60;;;;;;;19.64;79.07;96439.38;4180682;28;20658;-85
2023/10/21 08:11:57;;;;;;;1.87;0.60;;;;;;;19.69;77.64;96442.25;4160001;28;20640;-82
2023/10/21 08:14:01;;;;;;;1.73;0.63;;;;;;;19.68;76.28;96440.63;4180311;28;20637;-88
2023/10/21 08:16:06;;;;;;;1.10;0.50;;;;;;;19.83;77.70;96456.31;4190883;28;21214;-82
2023/10/21 08:18:09;;;;;;;1.27;0.60;;;;;;;19.90;76.28;96464.09;4193389;28;20658;-82
2023/10/21 08:20:12;;;;;;;1.50;0.63;;;;;;;19.87;76.85;96468.97;4176735;28;20738;-82
2023/10/21 08:22:16;;;;;;;2.27;1.07;;;;;;;19.94;77.21;96467.16;4172383;28;21328;-82
2023/10/21 08:24:19;;;;;;;1.40;0.57;;;;;;;19.92;76.92;96464.72;4160900;28;21250;-82
2023/10/21 08:26:22;;;;;;;3.80;1.87;;;;;;;19.89;77.31;96459.81;4174756;28;21085;-82
2023/10/21 08:28:25;;;;;;;5.80;4.23;;;;;;;19.89;76.92;96462.47;4183239;28;20662;-82
2023/10/21 08:30:28;;;;;;;1.20;0.53;;;;;;;19.93;78.53;96470.81;4202690;28;20657;-82
2023/10/21 08:32:33;;;;;;;1.53;0.60;;;;;;;19.96;76.14;96470.41;4189046;28;21128;-82
2023/10/21 08:34:36;;;;;;;1.10;0.50;;;;;;;19.68;74.39;96469.75;4201545;28;22608;-82
2023/10/21 08:36:40;;;;;;;3.63;1.53;;;;;;;19.66;75.72;96461.16;4197174;28;20621;-82
2023/10/21 08:38:44;;;;;;;3.23;1.53;;;;;;;19.68;75.66;96464.44;4171377;28;20648;-81
2023/10/21 08:40:47;;;;;;;3.10;1.80;;;;;;;19.65;78.75;96464.00;4164986;28;20621;-82
2023/10/21 08:42:51;;;;;;;1.93;1.00;;;;;;;19.64;75.75;96475.63;4182730;28;20680;-81
2023/10/21 08:45:02;;;;;;;1.30;0.50;;;;;;;19.67;76.25;96472.56;4164314;28;20739;-82
2023/10/21 08:47:07;;;;;;;1.37;0.43;;;;;;;19.64;76.70;96480.91;4171414;28;20651;-81
2023/10/21 08:49:13;;;;;;;1.17;0.50;;;;;;;19.62;75.85;96480.28;4202186;28;20654;-81
2023/10/21 08:51:20;;;;;;;1.10;0.40;;;;;;;19.74;74.75;96492.75;4164989;28;20659;-81
2023/10/21 08:53:25;;;;;;;1.27;0.47;;;;;;;19.89;77.02;96496.88;4183397;28;20633;-82
2023/10/21 08:55:28;;;;;;;1.17;0.40;;;;;;;19.71;75.89;96495.78;4188256;28;21006;-80
2023/10/21 08:57:31;;;;;;;1.57;0.60;;;;;;;19.72;76.19;96499.25;4184365;28;20999;-82
2023/10/21 08:59:35;;;;;;;1.40;0.60;;;;;;;19.75;74.88;96499.66;4187226;28;21805;-82
2023/10/21 09:01:40;;;;;;;1.70;1.00;;;;;;;19.85;76.68;96508.84;4201956;28;20635;-82
2023/10/21 09:03:47;;;;;;;1.03;0.43;;;;;;;19.95;76.03;96519.91;4184089;28;20638;-80
2023/10/21 09:06:07;;;;;;;1.20;0.40;;;;;;;20.00;76.35;96514.00;4201817;28;20769;-83
2023/10/21 09:08:10;;;;;;;1.20;0.50;;;;;;;19.99;75.42;96507.88;4193083;28;21198;-84
2023/10/21 09:10:12;;;;;;;1.30;0.60;;;;;;;19.97;75.48;96515.22;4189470;28;20663;-83
2023/10/21 09:12:17;;;;;;;1.73;0.50;;;;;;;20.02;74.78;96517.25;4158198;28;20663;-83
2023/10/21 09:14:21;;;;;;;2.20;0.80;;;;;;;20.08;75.22;96508.53;4171395;28;21287;-82
2023/10/21 09:16:25;;;;;;;1.60;0.60;;;;;;;19.95;72.78;96508.47;4174524;28;20738;-82
2023/10/21 09:18:28;;;;;;;1.10;0.50;;;;;;;19.85;74.31;96505.41;4160002;28;20628;-80
2023/10/21 09:20:34;;;;;;;2.07;0.50;;;;;;;19.82;75.62;96515.56;4185274;28;20639;-83
2023/10/21 09:22:40;;;;;;;1.40;0.50;;;;;;;19.76;73.74;96511.88;4171476;28;20635;-83
2023/10/21 09:24:44;;;;;;;1.87;0.50;;;;;;;19.66;74.64;96514.06;4175974;28;20640;-81
2023/10/21 09:26:50;;;;;;;1.10;0.50;;;;;;;19.49;75.11;96533.97;4205003;28;20671;-81
2023/10/21 09:29:05;;;;;;;1.53;0.50;;;;;;;19.24;74.25;96520.63;4155323;28;20641;-82
2023/10/21 09:31:08;;;;;;;1.47;0.63;;;;;;;19.04;75.42;96527.63;4195878;28;20684;-82
2023/10/21 09:33:11;;;;;;;1.00;0.40;;;;;;;18.85;74.90;96528.28;4182503;28;20653;-81
2023/10/21 09:35:17;;;;;;;2.70;1.50;;;;;;;18.65;75.21;96529.19;4153964;28;20747;-82
2023/10/21 09:37:26;;;;;;;3.63;2.27;;;;;;;18.55;76.14;96534.81;4173134;28;21055;-81
2023/10/21 09:39:33;;;;;;;2.00;1.23;;;;;;;18.47;77.77;96532.28;4178424;28;21033;-82
2023/10/21 09:41:36;;;;;;;1.50;0.70;;;;;;;18.48;78.29;96544.47;4170305;28;20748;-82
2023/10/21 09:43:40;;;;;;;1.17;0.50;;;;;;;18.50;76.99;96547.75;4190158;28;20617;-82